sensor_id;sensor_type;location;lat;lon;timestamp;P1;durP1;ratioP1;P2;durP2;ratioP2
19879;SDS011;10102;50.828;4.416;2023-07-20T00:01:40;4.45;;;2.67;;
19879;SDS011;10102;50.828;4.416;2023-07-20T00:04:10;7.03;;;2.15;;
19879;SDS011;10102;50.828;4.416;2023-07-20T00:06:36;12.00;;;2.50;;
19879;SDS011;10102;50.828;4.416;2023-07-20T00:09:05;6.85;;;2.65;;
19879;SDS011;10102;50.828;4.416;2023-07-20T00:11:32;6.22;;;2.30;;
19879;SDS011;10102;50.828;4.416;2023-07-20T00:14:01;8.50;;;2.38;;
19879;SDS011;10102;50.828;4.416;2023-07-20T00:16:27;6.35;;;2.63;;
19879;SDS011;10102;50.828;4.416;2023-07-20T00:18:52;7.88;;;2.53;;
19879;SDS011;10102;50.828;4.416;2023-07-20T00:21:20;5.30;;;2.63;;
19879;SDS011;10102;50.828;4.416;2023-07-20T00:23:46;9.25;;;2.85;;
19879;SDS011;10102;50.828;4.416;2023-07-20T00:26:11;10.05;;;2.83;;
19879;SDS011;10102;50.828;4.416;2023-07-20T00:28:37;8.98;;;3.08;;
19879;SDS011;10102;50.828;4.416;2023-07-20T00:31:03;9.70;;;2.92;;
19879;SDS011;10102;50.828;4.416;2023-07-20T00:33:29;9.10;;;2.72;;
19879;SDS011;10102;50.828;4.416;2023-07-20T00:35:54;7.22;;;2.22;;
19879;SDS011;10102;50.828;4.416;2023-07-20T00:38:20;5.45;;;2.35;;
19879;SDS011;10102;50.828;4.416;2023-07-20T00:40:46;8.73;;;2.50;;
19879;SDS011;10102;50.828;4.416;2023-07-20T00:43:14;5.88;;;2.30;;
19879;SDS011;10102;50.828;4.416;2023-07-20T00:45:40;7.82;;;3.22;;
19879;SDS011;10102;50.828;4.416;2023-07-20T00:48:07;10.23;;;3.08;;
19879;SDS011;10102;50.828;4.416;2023-07-20T00:50:33;6.00;;;2.78;;
19879;SDS011;10102;50.828;4.416;2023-07-20T00:53:00;6.65;;;2.63;;
19879;SDS011;10102;50.828;4.416;2023-07-20T00:55:28;11.25;;;3.28;;
19879;SDS011;10102;50.828;4.416;2023-07-20T00:57:55;6.75;;;3.38;;
19879;SDS011;10102;50.828;4.416;2023-07-20T01:00:21;6.32;;;2.80;;
19879;SDS011;10102;50.828;4.416;2023-07-20T01:02:47;7.88;;;2.75;;
19879;SDS011;10102;50.828;4.416;2023-07-20T01:05:15;11.45;;;3.22;;
19879;SDS011;10102;50.828;4.416;2023-07-20T01:10:38;7.72;;;3.40;;
19879;SDS011;10102;50.828;4.416;2023-07-20T01:13:07;8.95;;;2.80;;
19879;SDS011;10102;50.828;4.416;2023-07-20T01:15:34;10.68;;;3.35;;
19879;SDS011;10102;50.828;4.416;2023-07-20T01:18:01;12.15;;;3.65;;
19879;SDS011;10102;50.828;4.416;2023-07-20T01:20:26;16.58;;;3.17;;
19879;SDS011;10102;50.828;4.416;2023-07-20T01:28:58;9.77;;;2.90;;
19879;SDS011;10102;50.828;4.416;2023-07-20T01:31:55;18.10;;;3.92;;
19879;SDS011;10102;50.828;4.416;2023-07-20T01:34:23;10.80;;;3.78;;
19879;SDS011;10102;50.828;4.416;2023-07-20T01:36:50;11.05;;;4.72;;
19879;SDS011;10102;50.828;4.416;2023-07-20T01:39:19;8.65;;;4.60;;
19879;SDS011;10102;50.828;4.416;2023-07-20T01:41:46;11.02;;;4.45;;
19879;SDS011;10102;50.828;4.416;2023-07-20T01:44:12;6.93;;;3.78;;
19879;SDS011;10102;50.828;4.416;2023-07-20T01:46:38;8.50;;;4.32;;
19879;SDS011;10102;50.828;4.416;2023-07-20T01:49:04;15.48;;;4.45;;
19879;SDS011;10102;50.828;4.416;2023-07-20T01:51:29;10.77;;;4.40;;
19879;SDS011;10102;50.828;4.416;2023-07-20T01:53:55;11.18;;;4.38;;
19879;SDS011;10102;50.828;4.416;2023-07-20T01:56:22;13.90;;;4.35;;
19879;SDS011;10102;50.828;4.416;2023-07-20T01:58:48;15.55;;;5.00;;
19879;SDS011;10102;50.828;4.416;2023-07-20T02:01:15;12.80;;;4.38;;
19879;SDS011;10102;50.828;4.416;2023-07-20T02:03:42;11.25;;;4.78;;
19879;SDS011;10102;50.828;4.416;2023-07-20T02:06:08;12.00;;;4.70;;
19879;SDS011;10102;50.828;4.416;2023-07-20T02:08:33;15.48;;;4.72;;
19879;SDS011;10102;50.828;4.416;2023-07-20T02:10:59;18.40;;;5.22;;
19879;SDS011;10102;50.828;4.416;2023-07-20T02:13:25;12.20;;;4.90;;
19879;SDS011;10102;50.828;4.416;2023-07-20T02:15:51;13.50;;;5.85;;
19879;SDS011;10102;50.828;4.416;2023-07-20T02:18:17;12.77;;;5.40;;
19879;SDS011;10102;50.828;4.416;2023-07-20T02:20:43;13.10;;;5.03;;
19879;SDS011;10102;50.828;4.416;2023-07-20T02:23:09;12.82;;;5.25;;
19879;SDS011;10102;50.828;4.416;2023-07-20T02:25:36;9.93;;;5.53;;
19879;SDS011;10102;50.828;4.416;2023-07-20T02:28:03;11.65;;;5.35;;
19879;SDS011;10102;50.828;4.416;2023-07-20T02:30:29;11.52;;;4.78;;
19879;SDS011;10102;50.828;4.416;2023-07-20T02:32:56;13.00;;;5.78;;
19879;SDS011;10102;50.828;4.416;2023-07-20T02:35:24;14.00;;;5.63;;
19879;SDS011;10102;50.828;4.416;2023-07-20T02:37:51;16.55;;;6.05;;
19879;SDS011;10102;50.828;4.416;2023-07-20T02:40:17;15.27;;;5.97;;
19879;SDS011;10102;50.828;4.416;2023-07-20T02:42:43;17.77;;;5.95;;
19879;SDS011;10102;50.828;4.416;2023-07-20T02:45:09;17.10;;;6.82;;
19879;SDS011;10102;50.828;4.416;2023-07-20T02:47:35;12.85;;;5.82;;
19879;SDS011;10102;50.828;4.416;2023-07-20T02:50:02;20.50;;;6.53;;
19879;SDS011;10102;50.828;4.416;2023-07-20T02:52:28;13.88;;;6.05;;
19879;SDS011;10102;50.828;4.416;2023-07-20T02:54:55;14.30;;;6.00;;
19879;SDS011;10102;50.828;4.416;2023-07-20T02:57:21;11.05;;;5.80;;
19879;SDS011;10102;50.828;4.416;2023-07-20T02:59:47;15.93;;;6.35;;
19879;SDS011;10102;50.828;4.416;2023-07-20T03:02:12;15.90;;;6.05;;
19879;SDS011;10102;50.828;4.416;2023-07-20T03:04:39;10.98;;;6.75;;
19879;SDS011;10102;50.828;4.416;2023-07-20T03:07:05;16.67;;;7.03;;
19879;SDS011;10102;50.828;4.416;2023-07-20T03:09:32;20.85;;;6.43;;
19879;SDS011;10102;50.828;4.416;2023-07-20T03:11:57;10.48;;;5.95;;
19879;SDS011;10102;50.828;4.416;2023-07-20T03:14:25;13.15;;;5.60;;
19879;SDS011;10102;50.828;4.416;2023-07-20T03:16:51;13.20;;;6.15;;
19879;SDS011;10102;50.828;4.416;2023-07-20T03:19:16;11.95;;;6.05;;
19879;SDS011;10102;50.828;4.416;2023-07-20T03:21:44;12.80;;;6.32;;
19879;SDS011;10102;50.828;4.416;2023-07-20T03:24:10;14.27;;;7.05;;
19879;SDS011;10102;50.828;4.416;2023-07-20T03:26:36;13.15;;;6.63;;
19879;SDS011;10102;50.828;4.416;2023-07-20T03:29:02;13.77;;;6.43;;
19879;SDS011;10102;50.828;4.416;2023-07-20T03:31:29;18.65;;;6.70;;
19879;SDS011;10102;50.828;4.416;2023-07-20T03:33:55;17.67;;;7.28;;
19879;SDS011;10102;50.828;4.416;2023-07-20T03:36:21;18.48;;;7.30;;
19879;SDS011;10102;50.828;4.416;2023-07-20T03:38:47;22.52;;;8.20;;
19879;SDS011;10102;50.828;4.416;2023-07-20T03:41:12;21.15;;;7.97;;
19879;SDS011;10102;50.828;4.416;2023-07-20T03:43:41;15.10;;;7.05;;
19879;SDS011;10102;50.828;4.416;2023-07-20T03:46:07;18.00;;;8.35;;
19879;SDS011;10102;50.828;4.416;2023-07-20T03:48:33;18.65;;;7.90;;
19879;SDS011;10102;50.828;4.416;2023-07-20T03:50:59;21.35;;;7.35;;
19879;SDS011;10102;50.828;4.416;2023-07-20T03:53:25;19.63;;;8.77;;
19879;SDS011;10102;50.828;4.416;2023-07-20T03:55:51;21.98;;;9.00;;
19879;SDS011;10102;50.828;4.416;2023-07-20T03:58:18;16.15;;;8.32;;
19879;SDS011;10102;50.828;4.416;2023-07-20T04:00:50;17.45;;;9.10;;
19879;SDS011;10102;50.828;4.416;2023-07-20T04:03:17;20.73;;;8.70;;
19879;SDS011;10102;50.828;4.416;2023-07-20T04:05:43;16.55;;;8.38;;
19879;SDS011;10102;50.828;4.416;2023-07-20T04:08:09;17.83;;;8.13;;
19879;SDS011;10102;50.828;4.416;2023-07-20T04:10:39;18.17;;;9.27;;
19879;SDS011;10102;50.828;4.416;2023-07-20T04:13:08;19.98;;;8.63;;
19879;SDS011;10102;50.828;4.416;2023-07-20T04:15:33;12.25;;;8.75;;
19879;SDS011;10102;50.828;4.416;2023-07-20T04:17:59;15.30;;;7.63;;
19879;SDS011;10102;50.828;4.416;2023-07-20T04:20:26;17.60;;;8.38;;
19879;SDS011;10102;50.828;4.416;2023-07-20T04:22:52;21.58;;;9.32;;
19879;SDS011;10102;50.828;4.416;2023-07-20T04:25:19;17.25;;;8.68;;
19879;SDS011;10102;50.828;4.416;2023-07-20T04:27:44;21.05;;;9.70;;
19879;SDS011;10102;50.828;4.416;2023-07-20T04:30:11;20.08;;;9.18;;
19879;SDS011;10102;50.828;4.416;2023-07-20T04:32:38;18.00;;;9.43;;
19879;SDS011;10102;50.828;4.416;2023-07-20T04:35:09;20.77;;;9.73;;
19879;SDS011;10102;50.828;4.416;2023-07-20T04:37:34;16.83;;;8.85;;
19879;SDS011;10102;50.828;4.416;2023-07-20T04:40:00;14.75;;;8.80;;
19879;SDS011;10102;50.828;4.416;2023-07-20T04:42:27;17.75;;;8.98;;
19879;SDS011;10102;50.828;4.416;2023-07-20T04:44:52;20.58;;;9.20;;
19879;SDS011;10102;50.828;4.416;2023-07-20T04:47:18;21.08;;;8.88;;
19879;SDS011;10102;50.828;4.416;2023-07-20T04:49:44;17.10;;;9.10;;
19879;SDS011;10102;50.828;4.416;2023-07-20T04:52:09;17.73;;;8.63;;
19879;SDS011;10102;50.828;4.416;2023-07-20T04:54:36;16.15;;;8.95;;
19879;SDS011;10102;50.828;4.416;2023-07-20T04:57:02;21.40;;;8.75;;
19879;SDS011;10102;50.828;4.416;2023-07-20T04:59:27;18.48;;;9.75;;
19879;SDS011;10102;50.828;4.416;2023-07-20T05:01:53;18.08;;;9.80;;
19879;SDS011;10102;50.828;4.416;2023-07-20T05:04:19;20.70;;;9.45;;
19879;SDS011;10102;50.828;4.416;2023-07-20T05:06:44;21.10;;;9.93;;
19879;SDS011;10102;50.828;4.416;2023-07-20T05:09:10;17.98;;;9.07;;
19879;SDS011;10102;50.828;4.416;2023-07-20T05:11:36;21.60;;;9.70;;
19879;SDS011;10102;50.828;4.416;2023-07-20T05:14:02;16.08;;;8.80;;
19879;SDS011;10102;50.828;4.416;2023-07-20T05:16:27;18.45;;;8.88;;
19879;SDS011;10102;50.828;4.416;2023-07-20T05:18:54;22.65;;;8.63;;
19879;SDS011;10102;50.828;4.416;2023-07-20T05:21:22;18.98;;;8.88;;
19879;SDS011;10102;50.828;4.416;2023-07-20T05:23:48;18.30;;;8.88;;
19879;SDS011;10102;50.828;4.416;2023-07-20T05:26:13;15.60;;;9.20;;
19879;SDS011;10102;50.828;4.416;2023-07-20T05:28:39;17.10;;;9.13;;
19879;SDS011;10102;50.828;4.416;2023-07-20T05:31:06;17.88;;;8.40;;
19879;SDS011;10102;50.828;4.416;2023-07-20T05:33:31;14.85;;;7.95;;
19879;SDS011;10102;50.828;4.416;2023-07-20T05:35:57;14.75;;;6.63;;
19879;SDS011;10102;50.828;4.416;2023-07-20T05:38:22;11.18;;;6.57;;
19879;SDS011;10102;50.828;4.416;2023-07-20T05:40:48;14.35;;;7.07;;
19879;SDS011;10102;50.828;4.416;2023-07-20T05:43:14;9.20;;;7.25;;
19879;SDS011;10102;50.828;4.416;2023-07-20T05:45:43;10.48;;;6.22;;
19879;SDS011;10102;50.828;4.416;2023-07-20T05:48:09;13.65;;;6.63;;
19879;SDS011;10102;50.828;4.416;2023-07-20T05:50:37;11.55;;;6.60;;
19879;SDS011;10102;50.828;4.416;2023-07-20T05:53:03;10.82;;;6.47;;
19879;SDS011;10102;50.828;4.416;2023-07-20T05:55:28;11.80;;;6.28;;
19879;SDS011;10102;50.828;4.416;2023-07-20T05:57:54;9.75;;;5.78;;
19879;SDS011;10102;50.828;4.416;2023-07-20T06:00:22;13.13;;;5.82;;
19879;SDS011;10102;50.828;4.416;2023-07-20T06:02:54;10.93;;;6.50;;
19879;SDS011;10102;50.828;4.416;2023-07-20T06:05:24;16.08;;;6.55;;
19879;SDS011;10102;50.828;4.416;2023-07-20T06:07:50;13.15;;;5.72;;
19879;SDS011;10102;50.828;4.416;2023-07-20T06:10:16;8.07;;;4.93;;
19879;SDS011;10102;50.828;4.416;2023-07-20T06:12:41;9.25;;;5.18;;
19879;SDS011;10102;50.828;4.416;2023-07-20T06:15:23;5.82;;;4.30;;
19879;SDS011;10102;50.828;4.416;2023-07-20T06:18:01;11.02;;;4.30;;
19879;SDS011;10102;50.828;4.416;2023-07-20T06:20:28;7.63;;;4.88;;
19879;SDS011;10102;50.828;4.416;2023-07-20T06:22:54;7.22;;;4.75;;
19879;SDS011;10102;50.828;4.416;2023-07-20T06:25:20;12.32;;;4.55;;
19879;SDS011;10102;50.828;4.416;2023-07-20T06:27:46;9.90;;;4.65;;
19879;SDS011;10102;50.828;4.416;2023-07-20T06:30:11;8.73;;;5.25;;
19879;SDS011;10102;50.828;4.416;2023-07-20T06:32:38;7.53;;;4.20;;
19879;SDS011;10102;50.828;4.416;2023-07-20T06:35:04;9.60;;;5.00;;
19879;SDS011;10102;50.828;4.416;2023-07-20T06:37:30;8.60;;;4.70;;
19879;SDS011;10102;50.828;4.416;2023-07-20T06:39:57;7.78;;;4.75;;
19879;SDS011;10102;50.828;4.416;2023-07-20T06:42:22;7.70;;;4.70;;
19879;SDS011;10102;50.828;4.416;2023-07-20T06:44:49;10.27;;;4.55;;
19879;SDS011;10102;50.828;4.416;2023-07-20T06:47:15;8.50;;;4.63;;
19879;SDS011;10102;50.828;4.416;2023-07-20T06:49:41;7.88;;;4.93;;
19879;SDS011;10102;50.828;4.416;2023-07-20T06:52:07;13.25;;;4.90;;
19879;SDS011;10102;50.828;4.416;2023-07-20T06:54:33;7.47;;;4.05;;
19879;SDS011;10102;50.828;4.416;2023-07-20T06:56:59;7.40;;;4.35;;
19879;SDS011;10102;50.828;4.416;2023-07-20T06:59:24;10.60;;;5.28;;
19879;SDS011;10102;50.828;4.416;2023-07-20T07:01:50;4.88;;;3.70;;
19879;SDS011;10102;50.828;4.416;2023-07-20T07:04:16;7.43;;;3.70;;
19879;SDS011;10102;50.828;4.416;2023-07-20T07:06:41;4.20;;;3.35;;
19879;SDS011;10102;50.828;4.416;2023-07-20T07:09:08;6.57;;;2.70;;
19879;SDS011;10102;50.828;4.416;2023-07-20T07:11:34;6.82;;;2.63;;
19879;SDS011;10102;50.828;4.416;2023-07-20T07:14:00;4.47;;;2.58;;
19879;SDS011;10102;50.828;4.416;2023-07-20T07:16:28;8.50;;;2.97;;
19879;SDS011;10102;50.828;4.416;2023-07-20T07:18:53;4.78;;;2.90;;
19879;SDS011;10102;50.828;4.416;2023-07-20T07:21:19;10.38;;;2.95;;
19879;SDS011;10102;50.828;4.416;2023-07-20T07:23:45;4.07;;;1.75;;
19879;SDS011;10102;50.828;4.416;2023-07-20T07:26:11;3.65;;;1.50;;
19879;SDS011;10102;50.828;4.416;2023-07-20T07:28:37;2.35;;;1.42;;
19879;SDS011;10102;50.828;4.416;2023-07-20T07:31:05;1.70;;;1.20;;
19879;SDS011;10102;50.828;4.416;2023-07-20T07:33:31;3.35;;;2.10;;
19879;SDS011;10102;50.828;4.416;2023-07-20T07:35:57;2.95;;;1.58;;
19879;SDS011;10102;50.828;4.416;2023-07-20T07:38:23;4.90;;;1.95;;
19879;SDS011;10102;50.828;4.416;2023-07-20T07:40:49;2.78;;;1.50;;
19879;SDS011;10102;50.828;4.416;2023-07-20T07:43:14;4.65;;;1.60;;
19879;SDS011;10102;50.828;4.416;2023-07-20T07:45:41;2.38;;;1.55;;
19879;SDS011;10102;50.828;4.416;2023-07-20T07:48:08;6.68;;;1.70;;
19879;SDS011;10102;50.828;4.416;2023-07-20T07:50:36;3.45;;;1.80;;
19879;SDS011;10102;50.828;4.416;2023-07-20T07:53:02;2.38;;;1.42;;
19879;SDS011;10102;50.828;4.416;2023-07-20T07:55:28;6.80;;;1.48;;
19879;SDS011;10102;50.828;4.416;2023-07-20T07:57:54;1.73;;;1.63;;
19879;SDS011;10102;50.828;4.416;2023-07-20T08:00:20;1.75;;;1.35;;
19879;SDS011;10102;50.828;4.416;2023-07-20T08:02:45;2.10;;;1.33;;
19879;SDS011;10102;50.828;4.416;2023-07-20T08:05:14;1.70;;;0.93;;
19879;SDS011;10102;50.828;4.416;2023-07-20T08:07:40;2.88;;;1.13;;
19879;SDS011;10102;50.828;4.416;2023-07-20T08:10:07;2.70;;;1.17;;
19879;SDS011;10102;50.828;4.416;2023-07-20T08:12:34;3.65;;;1.10;;
19879;SDS011;10102;50.828;4.416;2023-07-20T08:15:00;1.38;;;1.00;;
19879;SDS011;10102;50.828;4.416;2023-07-20T08:17:26;2.45;;;1.17;;
19879;SDS011;10102;50.828;4.416;2023-07-20T08:19:52;1.70;;;1.00;;
19879;SDS011;10102;50.828;4.416;2023-07-20T08:22:19;3.42;;;0.90;;
19879;SDS011;10102;50.828;4.416;2023-07-20T08:24:45;4.80;;;0.75;;
19879;SDS011;10102;50.828;4.416;2023-07-20T08:27:10;1.00;;;0.90;;
19879;SDS011;10102;50.828;4.416;2023-07-20T08:29:36;1.02;;;0.90;;
19879;SDS011;10102;50.828;4.416;2023-07-20T08:32:04;0.90;;;0.90;;
19879;SDS011;10102;50.828;4.416;2023-07-20T08:34:31;2.03;;;0.98;;
19879;SDS011;10102;50.828;4.416;2023-07-20T08:36:57;1.98;;;1.10;;
19879;SDS011;10102;50.828;4.416;2023-07-20T08:39:24;3.58;;;1.33;;
19879;SDS011;10102;50.828;4.416;2023-07-20T08:41:50;1.90;;;1.10;;
19879;SDS011;10102;50.828;4.416;2023-07-20T08:44:19;4.78;;;1.20;;
19879;SDS011;10102;50.828;4.416;2023-07-20T08:46:44;1.85;;;1.00;;
19879;SDS011;10102;50.828;4.416;2023-07-20T08:49:12;3.70;;;1.48;;
19879;SDS011;10102;50.828;4.416;2023-07-20T08:51:42;4.38;;;1.90;;
19879;SDS011;10102;50.828;4.416;2023-07-20T08:54:09;7.90;;;2.00;;
19879;SDS011;10102;50.828;4.416;2023-07-20T08:56:37;3.13;;;1.55;;
19879;SDS011;10102;50.828;4.416;2023-07-20T08:59:04;1.98;;;1.40;;
19879;SDS011;10102;50.828;4.416;2023-07-20T09:01:30;3.25;;;1.52;;
19879;SDS011;10102;50.828;4.416;2023-07-20T09:03:57;2.80;;;1.30;;
19879;SDS011;10102;50.828;4.416;2023-07-20T09:06:22;2.53;;;1.40;;
19879;SDS011;10102;50.828;4.416;2023-07-20T09:08:48;1.88;;;1.00;;
19879;SDS011;10102;50.828;4.416;2023-07-20T09:11:14;1.98;;;1.40;;
19879;SDS011;10102;50.828;4.416;2023-07-20T09:13:40;3.30;;;1.50;;
19879;SDS011;10102;50.828;4.416;2023-07-20T09:16:05;8.77;;;1.73;;
19879;SDS011;10102;50.828;4.416;2023-07-20T09:18:32;4.28;;;2.22;;
19879;SDS011;10102;50.828;4.416;2023-07-20T09:21:02;4.22;;;2.15;;
19879;SDS011;10102;50.828;4.416;2023-07-20T09:23:32;4.18;;;2.47;;
19879;SDS011;10102;50.828;4.416;2023-07-20T09:25:59;3.55;;;2.10;;
19879;SDS011;10102;50.828;4.416;2023-07-20T09:28:25;3.63;;;1.90;;
19879;SDS011;10102;50.828;4.416;2023-07-20T09:30:51;2.78;;;1.70;;
19879;SDS011;10102;50.828;4.416;2023-07-20T09:33:22;5.00;;;2.25;;
19879;SDS011;10102;50.828;4.416;2023-07-20T09:35:48;5.10;;;1.77;;
19879;SDS011;10102;50.828;4.416;2023-07-20T09:38:14;1.55;;;1.45;;
19879;SDS011;10102;50.828;4.416;2023-07-20T09:40:41;3.35;;;1.75;;
19879;SDS011;10102;50.828;4.416;2023-07-20T09:43:10;3.17;;;1.88;;
19879;SDS011;10102;50.828;4.416;2023-07-20T09:48:06;1.67;;;1.42;;
19879;SDS011;10102;50.828;4.416;2023-07-20T09:50:32;2.85;;;1.38;;
19879;SDS011;10102;50.828;4.416;2023-07-20T09:52:58;1.40;;;1.30;;
19879;SDS011;10102;50.828;4.416;2023-07-20T09:55:27;4.60;;;1.55;;
19879;SDS011;10102;50.828;4.416;2023-07-20T09:57:54;2.60;;;1.60;;
19879;SDS011;10102;50.828;4.416;2023-07-20T10:00:21;3.45;;;1.00;;
19879;SDS011;10102;50.828;4.416;2023-07-20T10:02:47;5.40;;;1.30;;
19879;SDS011;10102;50.828;4.416;2023-07-20T10:05:16;1.88;;;1.42;;
19879;SDS011;10102;50.828;4.416;2023-07-20T10:07:44;5.68;;;1.35;;
19879;SDS011;10102;50.828;4.416;2023-07-20T10:10:15;1.75;;;1.05;;
19879;SDS011;10102;50.828;4.416;2023-07-20T10:12:42;4.10;;;1.10;;
19879;SDS011;10102;50.828;4.416;2023-07-20T10:18:07;3.33;;;1.40;;
19879;SDS011;10102;50.828;4.416;2023-07-20T10:20:41;7.43;;;1.40;;
19879;SDS011;10102;50.828;4.416;2023-07-20T10:23:08;3.00;;;1.40;;
19879;SDS011;10102;50.828;4.416;2023-07-20T10:25:35;5.07;;;1.40;;
19879;SDS011;10102;50.828;4.416;2023-07-20T10:28:05;3.55;;;1.45;;
19879;SDS011;10102;50.828;4.416;2023-07-20T10:30:34;2.30;;;1.20;;
19879;SDS011;10102;50.828;4.416;2023-07-20T10:33:01;5.00;;;1.70;;
19879;SDS011;10102;50.828;4.416;2023-07-20T10:35:30;3.72;;;1.33;;
19879;SDS011;10102;50.828;4.416;2023-07-20T10:38:15;1.85;;;1.30;;
19879;SDS011;10102;50.828;4.416;2023-07-20T10:40:40;1.30;;;1.20;;
19879;SDS011;10102;50.828;4.416;2023-07-20T10:43:07;1.35;;;1.25;;
19879;SDS011;10102;50.828;4.416;2023-07-20T10:48:23;3.70;;;1.48;;
19879;SDS011;10102;50.828;4.416;2023-07-20T10:53:40;3.97;;;1.45;;
19879;SDS011;10102;50.828;4.416;2023-07-20T10:56:12;3.28;;;1.75;;
19879;SDS011;10102;50.828;4.416;2023-07-20T10:58:39;1.83;;;1.30;;
19879;SDS011;10102;50.828;4.416;2023-07-20T11:01:08;2.20;;;1.35;;
19879;SDS011;10102;50.828;4.416;2023-07-20T11:03:39;2.05;;;1.80;;
19879;SDS011;10102;50.828;4.416;2023-07-20T11:08:50;2.08;;;1.40;;
19879;SDS011;10102;50.828;4.416;2023-07-20T11:11:36;3.10;;;1.58;;
19879;SDS011;10102;50.828;4.416;2023-07-20T11:14:03;3.20;;;1.60;;
19879;SDS011;10102;50.828;4.416;2023-07-20T11:18:58;2.67;;;1.40;;
19879;SDS011;10102;50.828;4.416;2023-07-20T11:21:24;2.72;;;1.67;;
19879;SDS011;10102;50.828;4.416;2023-07-20T11:23:51;2.83;;;1.58;;
19879;SDS011;10102;50.828;4.416;2023-07-20T11:26:17;1.73;;;1.38;;
19879;SDS011;10102;50.828;4.416;2023-07-20T11:28:48;6.30;;;1.70;;
19879;SDS011;10102;50.828;4.416;2023-07-20T11:31:17;2.00;;;1.80;;
19879;SDS011;10102;50.828;4.416;2023-07-20T11:33:43;3.78;;;2.15;;
19879;SDS011;10102;50.828;4.416;2023-07-20T11:36:09;1.85;;;1.70;;
19879;SDS011;10102;50.828;4.416;2023-07-20T11:38:35;1.85;;;1.73;;
19879;SDS011;10102;50.828;4.416;2023-07-20T11:41:02;2.42;;;1.98;;
19879;SDS011;10102;50.828;4.416;2023-07-20T11:43:28;2.10;;;1.60;;
19879;SDS011;10102;50.828;4.416;2023-07-20T11:45:55;2.08;;;1.88;;
19879;SDS011;10102;50.828;4.416;2023-07-20T11:48:21;8.52;;;1.85;;
19879;SDS011;10102;50.828;4.416;2023-07-20T11:50:46;3.63;;;1.80;;
19879;SDS011;10102;50.828;4.416;2023-07-20T11:53:12;3.53;;;1.70;;
19879;SDS011;10102;50.828;4.416;2023-07-20T11:55:39;7.75;;;1.92;;
19879;SDS011;10102;50.828;4.416;2023-07-20T11:58:06;2.65;;;2.00;;
19879;SDS011;10102;50.828;4.416;2023-07-20T12:00:33;3.85;;;2.10;;
19879;SDS011;10102;50.828;4.416;2023-07-20T12:03:00;3.55;;;2.50;;
19879;SDS011;10102;50.828;4.416;2023-07-20T12:05:25;3.70;;;1.83;;
19879;SDS011;10102;50.828;4.416;2023-07-20T12:07:51;4.50;;;2.17;;
19879;SDS011;10102;50.828;4.416;2023-07-20T12:10:23;3.08;;;2.30;;
19879;SDS011;10102;50.828;4.416;2023-07-20T12:12:51;4.10;;;2.55;;
19879;SDS011;10102;50.828;4.416;2023-07-20T12:17:43;3.28;;;2.50;;
19879;SDS011;10102;50.828;4.416;2023-07-20T12:20:09;4.95;;;2.58;;
19879;SDS011;10102;50.828;4.416;2023-07-20T12:22:39;3.15;;;2.60;;
19879;SDS011;10102;50.828;4.416;2023-07-20T12:25:06;3.20;;;2.60;;
19879;SDS011;10102;50.828;4.416;2023-07-20T12:27:33;3.42;;;2.60;;
19879;SDS011;10102;50.828;4.416;2023-07-20T12:30:02;2.78;;;2.40;;
19879;SDS011;10102;50.828;4.416;2023-07-20T12:32:29;4.07;;;2.90;;
19879;SDS011;10102;50.828;4.416;2023-07-20T12:34:54;4.10;;;2.15;;
19879;SDS011;10102;50.828;4.416;2023-07-20T12:37:20;3.95;;;2.38;;
19879;SDS011;10102;50.828;4.416;2023-07-20T12:39:46;6.82;;;2.40;;
19879;SDS011;10102;50.828;4.416;2023-07-20T12:42:12;2.63;;;1.92;;
19879;SDS011;10102;50.828;4.416;2023-07-20T12:44:39;4.20;;;2.58;;
19879;SDS011;10102;50.828;4.416;2023-07-20T12:47:05;2.78;;;2.15;;
19879;SDS011;10102;50.828;4.416;2023-07-20T12:49:31;3.58;;;2.30;;
19879;SDS011;10102;50.828;4.416;2023-07-20T12:51:56;5.88;;;2.15;;
19879;SDS011;10102;50.828;4.416;2023-07-20T12:54:22;2.38;;;1.73;;
19879;SDS011;10102;50.828;4.416;2023-07-20T12:56:48;6.97;;;2.30;;
19879;SDS011;10102;50.828;4.416;2023-07-20T12:59:13;6.57;;;2.42;;
19879;SDS011;10102;50.828;4.416;2023-07-20T13:01:39;2.85;;;1.92;;
19879;SDS011;10102;50.828;4.416;2023-07-20T13:04:06;3.83;;;2.00;;
19879;SDS011;10102;50.828;4.416;2023-07-20T13:06:34;6.68;;;2.25;;
19879;SDS011;10102;50.828;4.416;2023-07-20T13:09:00;2.42;;;1.85;;
19879;SDS011;10102;50.828;4.416;2023-07-20T13:11:25;4.35;;;2.15;;
19879;SDS011;10102;50.828;4.416;2023-07-20T13:13:51;3.42;;;1.95;;
19879;SDS011;10102;50.828;4.416;2023-07-20T13:16:17;2.65;;;1.75;;
19879;SDS011;10102;50.828;4.416;2023-07-20T13:18:42;3.28;;;1.98;;
19879;SDS011;10102;50.828;4.416;2023-07-20T13:21:08;6.20;;;2.08;;
19879;SDS011;10102;50.828;4.416;2023-07-20T13:23:39;6.30;;;2.58;;
19879;SDS011;10102;50.828;4.416;2023-07-20T13:26:05;3.28;;;2.08;;
19879;SDS011;10102;50.828;4.416;2023-07-20T13:28:30;3.30;;;2.53;;
19879;SDS011;10102;50.828;4.416;2023-07-20T13:30:56;5.90;;;2.28;;
19879;SDS011;10102;50.828;4.416;2023-07-20T13:33:21;4.10;;;2.92;;
19879;SDS011;10102;50.828;4.416;2023-07-20T13:35:47;4.82;;;3.00;;
19879;SDS011;10102;50.828;4.416;2023-07-20T13:38:13;3.50;;;2.70;;
19879;SDS011;10102;50.828;4.416;2023-07-20T13:40:38;7.00;;;2.90;;
19879;SDS011;10102;50.828;4.416;2023-07-20T13:43:04;6.35;;;2.60;;
19879;SDS011;10102;50.828;4.416;2023-07-20T13:45:30;3.95;;;2.25;;
19879;SDS011;10102;50.828;4.416;2023-07-20T13:47:55;4.05;;;2.30;;
19879;SDS011;10102;50.828;4.416;2023-07-20T13:50:21;5.70;;;2.80;;
19879;SDS011;10102;50.828;4.416;2023-07-20T13:52:48;4.70;;;2.35;;
19879;SDS011;10102;50.828;4.416;2023-07-20T13:58:14;7.65;;;2.20;;
19879;SDS011;10102;50.828;4.416;2023-07-20T14:00:40;9.40;;;2.30;;
19879;SDS011;10102;50.828;4.416;2023-07-20T14:03:06;2.30;;;1.63;;
19879;SDS011;10102;50.828;4.416;2023-07-20T14:05:31;2.65;;;1.65;;
19879;SDS011;10102;50.828;4.416;2023-07-20T14:07:58;3.72;;;1.70;;
19879;SDS011;10102;50.828;4.416;2023-07-20T14:10:24;3.42;;;2.03;;
19879;SDS011;10102;50.828;4.416;2023-07-20T14:12:51;4.13;;;2.13;;
19879;SDS011;10102;50.828;4.416;2023-07-20T14:15:16;5.72;;;1.85;;
19879;SDS011;10102;50.828;4.416;2023-07-20T14:17:44;8.00;;;1.67;;
19879;SDS011;10102;50.828;4.416;2023-07-20T14:20:09;5.78;;;1.75;;
19879;SDS011;10102;50.828;4.416;2023-07-20T14:22:35;3.28;;;2.05;;
19879;SDS011;10102;50.828;4.416;2023-07-20T14:25:02;6.28;;;1.35;;
19879;SDS011;10102;50.828;4.416;2023-07-20T14:27:27;2.67;;;1.50;;
19879;SDS011;10102;50.828;4.416;2023-07-20T14:29:54;2.65;;;1.23;;
19879;SDS011;10102;50.828;4.416;2023-07-20T14:32:20;2.30;;;1.50;;
19879;SDS011;10102;50.828;4.416;2023-07-20T14:34:46;4.60;;;1.63;;
19879;SDS011;10102;50.828;4.416;2023-07-20T14:37:13;2.13;;;1.63;;
19879;SDS011;10102;50.828;4.416;2023-07-20T14:39:38;5.20;;;1.65;;
19879;SDS011;10102;50.828;4.416;2023-07-20T14:42:04;2.63;;;1.27;;
19879;SDS011;10102;50.828;4.416;2023-07-20T14:44:30;4.40;;;1.45;;
19879;SDS011;10102;50.828;4.416;2023-07-20T14:46:58;1.83;;;1.27;;
19879;SDS011;10102;50.828;4.416;2023-07-20T14:49:25;3.63;;;1.40;;
19879;SDS011;10102;50.828;4.416;2023-07-20T14:51:53;5.05;;;1.48;;
19879;SDS011;10102;50.828;4.416;2023-07-20T14:54:21;3.75;;;1.63;;
19879;SDS011;10102;50.828;4.416;2023-07-20T14:56:49;3.92;;;1.40;;
19879;SDS011;10102;50.828;4.416;2023-07-20T14:59:17;2.83;;;1.05;;
19879;SDS011;10102;50.828;4.416;2023-07-20T15:01:44;1.67;;;1.20;;
19879;SDS011;10102;50.828;4.416;2023-07-20T15:04:13;2.20;;;1.00;;
19879;SDS011;10102;50.828;4.416;2023-07-20T15:06:40;1.85;;;1.20;;
19879;SDS011;10102;50.828;4.416;2023-07-20T15:09:07;2.15;;;1.17;;
19879;SDS011;10102;50.828;4.416;2023-07-20T15:11:35;1.58;;;1.48;;